createdAt,value
2022-08-02T00:00:33.889Z,98861.20
2022-08-02T00:03:00.425Z,98857.00
2022-08-02T00:05:27.528Z,98854.80
2022-08-02T00:07:54.073Z,98855.80
2022-08-02T00:10:20.580Z,98857.80
2022-08-02T00:12:47.148Z,98859.60
2022-08-02T00:15:16.184Z,98857.80
2022-08-02T00:17:44.025Z,98861.00
2022-08-02T00:20:11.911Z,98859.80
2022-08-02T00:22:38.778Z,98860.00
2022-08-02T00:25:06.212Z,98860.60
2022-08-02T00:27:32.824Z,98857.20
2022-08-02T00:29:59.349Z,98858.80
2022-08-02T00:32:25.869Z,98860.60
2022-08-02T00:34:52.545Z,98858.80
2022-08-02T00:37:19.111Z,98863.00
2022-08-02T00:39:45.655Z,98868.00
2022-08-02T00:42:15.879Z,98870.60
2022-08-02T00:44:42.755Z,98870.40
2022-08-02T00:47:09.899Z,98871.20
2022-08-02T00:49:37.411Z,98870.40
2022-08-02T00:52:05.396Z,98873.40
2022-08-02T00:54:32.031Z,98864.80
2022-08-02T00:56:58.715Z,98863.40
2022-08-02T00:59:25.204Z,98864.40
2022-08-02T01:01:56.576Z,98861.00
2022-08-02T01:04:31.227Z,98859.40
2022-08-02T01:07:00.858Z,98869.00
2022-08-02T01:09:27.866Z,98873.20
2022-08-02T01:11:54.415Z,98875.80
2022-08-02T01:14:24.687Z,98879.00
2022-08-02T01:17:08.463Z,98884.00
2022-08-02T01:19:51.180Z,98881.80
2022-08-02T01:23:00.641Z,98883.00
2022-08-02T01:25:58.747Z,98887.60
2022-08-02T01:28:37.821Z,98883.20
2022-08-02T01:31:25.209Z,98887.40
2022-08-02T01:34:16.522Z,98884.00
2022-08-02T01:36:51.257Z,98887.60
2022-08-02T01:39:26.626Z,98888.80
2022-08-02T01:42:02.132Z,98891.00
2022-08-02T01:44:35.955Z,98891.40
2022-08-02T01:47:09.275Z,98892.80
2022-08-02T01:49:41.143Z,98889.60
2022-08-02T01:52:23.212Z,98890.00
2022-08-02T01:55:09.954Z,98890.60
2022-08-02T01:57:50.356Z,98890.20
2022-08-02T02:00:20.925Z,98891.20
2022-08-02T02:02:50.523Z,98892.00
2022-08-02T02:05:20.971Z,98891.40
2022-08-02T02:07:53.733Z,98886.00
2022-08-02T02:10:26.674Z,98881.00
2022-08-02T02:12:54.933Z,98876.00
2022-08-02T02:15:23.808Z,98884.00
2022-08-02T02:18:11.047Z,98876.80
2022-08-02T02:20:39.941Z,98872.40
2022-08-02T02:23:06.621Z,98875.60
2022-08-02T02:25:41.557Z,98871.60
2022-08-02T02:28:28.836Z,98873.40
2022-08-02T02:31:05.531Z,98871.60
2022-08-02T02:33:37.550Z,98870.20
2022-08-02T02:36:07.903Z,98866.60
2022-08-02T02:38:36.297Z,98863.80
2022-08-02T02:41:06.962Z,98860.80
2022-08-02T02:43:36.988Z,98865.60
2022-08-02T02:46:07.513Z,98864.60
2022-08-02T02:48:36.162Z,98867.20
2022-08-02T02:51:05.684Z,98864.20
2022-08-02T02:54:29.937Z,98863.60
2022-08-02T02:56:24.327Z,98868.00
2022-08-02T02:58:52.742Z,98872.00
2022-08-02T03:01:55.602Z,98872.60
2022-08-02T03:04:16.887Z,98869.60
2022-08-02T03:06:43.506Z,98861.80
2022-08-02T03:09:11.603Z,98865.60
2022-08-02T03:11:39.575Z,98865.40
2022-08-02T03:14:12.037Z,98875.60
2022-08-02T03:16:51.331Z,98873.60
2022-08-02T03:19:20.535Z,98872.40
2022-08-02T03:21:57.215Z,98869.80
2022-08-02T03:24:28.098Z,98867.80
2022-08-02T03:26:55.642Z,98859.60
2022-08-02T03:29:22.264Z,98858.80
2022-08-02T03:31:49.867Z,98860.60
2022-08-02T03:34:16.550Z,98861.00
2022-08-02T03:36:45.758Z,98868.00
2022-08-02T03:39:12.961Z,98871.60
2022-08-02T03:41:41.810Z,98874.40
2022-08-02T03:44:10.520Z,98877.40
2022-08-02T03:46:39.631Z,98881.20
2022-08-02T03:49:08.615Z,98879.60
2022-08-02T03:51:38.921Z,98892.00
2022-08-02T03:54:06.528Z,98895.60
2022-08-02T03:56:34.765Z,98895.80
2022-08-02T03:59:13.422Z,98896.40
2022-08-02T04:01:40.505Z,98891.20
2022-08-02T04:04:08.173Z,98887.20
2022-08-02T04:06:35.016Z,98890.80
2022-08-02T04:09:02.160Z,98893.80
2022-08-02T04:11:31.586Z,98896.80
2022-08-02T04:14:06.539Z,98901.60
2022-08-02T04:16:48.395Z,98907.60
2022-08-02T04:19:28.030Z,98907.40
2022-08-02T04:21:57.621Z,98911.80
2022-08-02T04:24:32.149Z,98917.00
2022-08-02T04:27:06.679Z,98916.20
2022-08-02T04:29:47.344Z,98917.60
2022-08-02T04:32:15.248Z,98920.00
2022-08-02T04:34:54.199Z,98916.20
2022-08-02T04:37:29.914Z,98920.80
2022-08-02T04:39:56.612Z,98919.80
2022-08-02T04:42:25.911Z,98922.00
2022-08-02T04:44:53.933Z,98918.20
2022-08-02T04:47:39.919Z,98922.80
2022-08-02T04:50:08.945Z,98925.20
2022-08-02T04:52:35.622Z,98932.20
2022-08-02T04:55:02.385Z,98933.80
2022-08-02T04:57:52.382Z,98935.60
2022-08-02T05:00:19.925Z,98937.00
2022-08-02T05:02:46.842Z,98942.20
2022-08-02T05:05:13.569Z,98944.00
2022-08-02T05:07:40.109Z,98945.40
2022-08-02T05:10:07.389Z,98951.40
2022-08-02T05:12:34.093Z,98945.80
2022-08-02T05:15:00.883Z,98948.40
2022-08-02T05:17:27.487Z,98952.00
2022-08-02T05:19:53.965Z,98953.60
2022-08-02T05:22:20.560Z,98958.60
2022-08-02T05:24:47.060Z,98961.40
2022-08-02T05:27:17.215Z,98963.80
2022-08-02T05:29:53.542Z,98966.40
2022-08-02T05:32:23.815Z,98965.60
2022-08-02T05:34:52.965Z,98966.00
2022-08-02T05:37:19.506Z,98963.20
2022-08-02T05:39:55.017Z,98966.40
2022-08-02T05:42:23.609Z,98970.40
2022-08-02T05:44:50.458Z,98975.00
2022-08-02T05:47:17.319Z,98976.80
2022-08-02T05:49:43.962Z,98980.80
2022-08-02T05:52:18.597Z,98981.40
2022-08-02T05:54:55.406Z,98985.00
2022-08-02T05:57:54.932Z,98990.00
2022-08-02T06:00:24.033Z,98998.00
2022-08-02T06:03:24.025Z,99003.40
2022-08-02T06:06:05.725Z,99004.20
2022-08-02T06:08:39.569Z,99003.40
2022-08-02T06:11:08.425Z,99003.40
2022-08-02T06:13:35.586Z,99006.60
2022-08-02T06:16:03.352Z,99008.00
2022-08-02T06:18:33.640Z,99005.80
2022-08-02T06:22:33.663Z,99010.60
2022-08-02T06:23:57.987Z,99014.60
2022-08-02T06:26:28.289Z,99016.40
2022-08-02T06:28:57.948Z,99014.40
2022-08-02T06:31:25.336Z,99017.60
2022-08-02T06:33:52.241Z,99019.60
2022-08-02T06:36:30.866Z,99024.60
2022-08-02T06:39:40.810Z,99023.20
2022-08-02T06:42:15.618Z,99031.80
2022-08-02T06:44:48.925Z,99036.20
2022-08-02T06:47:18.404Z,99045.60
2022-08-02T06:49:52.921Z,99041.20
2022-08-02T06:52:31.083Z,99044.00
2022-08-02T06:55:04.108Z,99048.20
2022-08-02T06:57:31.739Z,99049.60
2022-08-02T07:00:01.786Z,99054.40
2022-08-02T07:02:31.348Z,99053.40
2022-08-02T07:04:58.872Z,99047.80
2022-08-02T07:07:26.461Z,99049.20
2022-08-02T07:09:57.039Z,99050.00
2022-08-02T07:12:32.785Z,99051.60
2022-08-02T07:15:02.309Z,99052.00
2022-08-02T07:17:29.597Z,99050.40
2022-08-02T07:19:57.551Z,99055.20
2022-08-02T07:22:26.997Z,99060.60
2022-08-02T07:24:56.206Z,99064.80
2022-08-02T07:27:23.394Z,99064.20
2022-08-02T07:29:50.154Z,99065.20
2022-08-02T07:32:19.867Z,99064.20
2022-08-02T07:34:50.937Z,99071.40
2022-08-02T07:37:35.328Z,99074.00
2022-08-02T07:40:13.717Z,99082.00
2022-08-02T07:42:43.419Z,99081.80
2022-08-02T07:45:11.903Z,99080.60
2022-08-02T07:47:40.999Z,99074.60
2022-08-02T07:50:09.742Z,99076.80
2022-08-02T07:52:36.674Z,99078.80
2022-08-02T07:55:04.728Z,99089.40
2022-08-02T07:57:31.445Z,99094.60
2022-08-02T07:59:58.081Z,99092.00
2022-08-02T08:02:25.079Z,99089.80
2022-08-02T08:04:52.893Z,99092.60
2022-08-02T08:07:20.301Z,99093.80
2022-08-02T08:09:48.113Z,99089.40
2022-08-02T08:12:16.365Z,99093.20
2022-08-02T08:14:44.641Z,99094.80
2022-08-02T08:17:11.512Z,99095.20
2022-08-02T08:19:52.062Z,99092.60
2022-08-02T08:22:20.633Z,99095.40
2022-08-02T08:24:48.264Z,99099.60
2022-08-02T08:27:15.875Z,99103.60
2022-08-02T08:29:43.849Z,99098.20
2022-08-02T08:32:16.236Z,99103.00
2022-08-02T08:34:45.899Z,99105.00
2022-08-02T08:37:17.718Z,99109.00
2022-08-02T08:39:57.553Z,99109.00
2022-08-02T08:42:31.516Z,99115.20
2022-08-02T08:44:59.624Z,99114.60
2022-08-02T08:47:41.277Z,99114.00
2022-08-02T08:50:18.895Z,99118.40
2022-08-02T08:53:03.811Z,99119.00
2022-08-02T08:55:32.136Z,99124.00
2022-08-02T08:58:00.763Z,99126.40
2022-08-02T09:00:30.245Z,99128.40
2022-08-02T09:02:57.413Z,99132.80
2022-08-02T09:05:25.224Z,99135.40
2022-08-02T09:07:53.340Z,99139.80
2022-08-02T09:10:40.326Z,99143.20
2022-08-02T09:13:45.240Z,99144.60
2022-08-02T09:16:14.392Z,99145.60
2022-08-02T09:18:47.226Z,99148.40
2022-08-02T09:21:17.154Z,99148.00
2022-08-02T09:23:48.485Z,99150.40
2022-08-02T09:26:20.772Z,99153.00
2022-08-02T09:28:51.715Z,99161.00
2022-08-02T09:31:24.559Z,99160.60
2022-08-02T09:33:56.207Z,99157.80
2022-08-02T09:36:24.767Z,99163.40
2022-08-02T09:39:06.081Z,99161.80
2022-08-02T09:41:37.668Z,99160.00
2022-08-02T09:44:07.101Z,99162.40
2022-08-02T09:46:39.192Z,99159.20
2022-08-02T09:49:10.376Z,99162.00
2022-08-02T09:51:41.526Z,99161.60
2022-08-02T09:54:11.950Z,99160.60
2022-08-02T09:56:48.326Z,99162.80
2022-08-02T09:59:16.905Z,99166.60
2022-08-02T10:01:51.572Z,99165.80
2022-08-02T10:04:30.937Z,99165.60
2022-08-02T10:06:59.945Z,99167.60
2022-08-02T10:09:28.930Z,99169.00
2022-08-02T10:11:56.398Z,99166.40
2022-08-02T10:14:23.890Z,99164.40
2022-08-02T10:16:53.265Z,99161.40
2022-08-02T10:19:59.842Z,99164.20
2022-08-02T10:22:14.992Z,99158.80
2022-08-02T10:24:48.008Z,99162.20
2022-08-02T10:27:20.176Z,99161.00
2022-08-02T10:29:52.856Z,99160.40
2022-08-02T10:32:39.887Z,99161.40
2022-08-02T10:35:20.115Z,99156.80
2022-08-02T10:37:58.590Z,99155.60
2022-08-02T10:40:28.145Z,99154.20
2022-08-02T10:43:01.885Z,99154.40
2022-08-02T10:45:29.157Z,99157.20
2022-08-02T10:48:16.458Z,99156.20
2022-08-02T10:50:46.093Z,99155.40
2022-08-02T10:53:33.589Z,99154.40
2022-08-02T10:56:04.271Z,99154.80
2022-08-02T10:58:33.935Z,99152.60
2022-08-02T11:01:26.625Z,99150.80
2022-08-02T11:04:09.746Z,99150.60
2022-08-02T11:07:17.233Z,99149.80
2022-08-02T11:09:46.982Z,99149.00
2022-08-02T11:12:20.209Z,99149.40
2022-08-02T11:15:07.625Z,99149.20
2022-08-02T11:17:59.181Z,99149.40
2022-08-02T11:20:29.122Z,99153.20
2022-08-02T11:22:56.350Z,99150.60
2022-08-02T11:25:22.819Z,99145.20
2022-08-02T11:27:59.078Z,99151.00
2022-08-02T11:30:27.430Z,99143.20
2022-08-02T11:32:59.509Z,99144.40
2022-08-02T11:35:39.522Z,99142.20
2022-08-02T11:38:19.030Z,99148.00
2022-08-02T11:40:48.141Z,99145.20
2022-08-02T11:43:24.106Z,99147.80
2022-08-02T11:45:53.326Z,99146.40
2022-08-02T11:48:41.238Z,99150.00
2022-08-02T11:51:17.020Z,99155.80
2022-08-02T11:53:58.456Z,99152.40
2022-08-02T11:56:34.430Z,99156.20
2022-08-02T11:59:10.024Z,99156.80
2022-08-02T12:01:45.985Z,99156.60
2022-08-02T12:04:18.724Z,99161.60
2022-08-02T12:06:57.930Z,99165.40
2022-08-02T12:09:27.901Z,99165.60
2022-08-02T12:11:57.088Z,99165.20
2022-08-02T12:14:26.910Z,99162.40
2022-08-02T12:17:12.327Z,99160.60
2022-08-02T12:19:42.285Z,99166.20
2022-08-02T12:22:16.898Z,99161.40
2022-08-02T12:24:52.008Z,99162.20
2022-08-02T12:27:31.072Z,99162.20
2022-08-02T12:30:09.888Z,99161.60
2022-08-02T12:32:37.867Z,99161.60
2022-08-02T12:35:13.443Z,99159.40
2022-08-02T12:37:43.952Z,99162.40
2022-08-02T12:40:30.260Z,99160.60
2022-08-02T12:43:05.121Z,99164.40
2022-08-02T12:45:57.419Z,99168.80
2022-08-02T12:48:56.562Z,99166.00
2022-08-02T12:51:56.283Z,99162.00
2022-08-02T12:54:39.194Z,99159.80
2022-08-02T12:57:19.818Z,99163.40
2022-08-02T12:59:55.855Z,99160.40
2022-08-02T13:02:22.394Z,99161.00
2022-08-02T13:04:49.933Z,99155.80
2022-08-02T13:07:18.369Z,99152.60
2022-08-02T13:09:46.854Z,99148.40
2022-08-02T13:12:14.412Z,99157.40
2022-08-02T13:14:42.695Z,99157.80
2022-08-02T13:17:11.258Z,99151.20
2022-08-02T13:19:38.507Z,99150.20
2022-08-02T13:22:06.097Z,99154.20
2022-08-02T13:24:40.758Z,99155.00
2022-08-02T13:27:21.152Z,99149.20
2022-08-02T13:29:49.911Z,99143.40
2022-08-02T13:32:17.240Z,99140.40
2022-08-02T13:34:44.302Z,99139.80
2022-08-02T13:37:11.234Z,99146.60
2022-08-02T13:39:37.744Z,99137.60
2022-08-02T13:42:05.851Z,99135.80
2022-08-02T13:44:33.897Z,99130.40
2022-08-02T13:47:03.239Z,99129.40
2022-08-02T13:49:50.952Z,99132.00
2022-08-02T13:52:17.929Z,99127.60
2022-08-02T13:54:44.589Z,99128.60
2022-08-02T13:57:11.151Z,99128.20
2022-08-02T13:59:56.123Z,99127.60
2022-08-02T14:02:25.272Z,99125.00
2022-08-02T14:04:51.887Z,99122.40
2022-08-02T14:07:18.513Z,99128.20
2022-08-02T14:09:45.180Z,99124.40
2022-08-02T14:12:13.186Z,99122.60
2022-08-02T14:14:39.963Z,99120.40
2022-08-02T14:17:06.517Z,99126.00
2022-08-02T14:19:33.131Z,99124.00
2022-08-02T14:22:11.048Z,99127.20
2022-08-02T14:24:46.578Z,99125.80
2022-08-02T14:27:13.503Z,99120.40
2022-08-02T14:29:40.228Z,99114.60
2022-08-02T14:32:07.262Z,99119.40
2022-08-02T14:34:33.936Z,99114.80
2022-08-02T14:37:00.473Z,99113.80
2022-08-02T14:39:26.969Z,99107.80
2022-08-02T14:42:09.408Z,99113.40
2022-08-02T14:44:35.970Z,99112.20
2022-08-02T14:47:02.758Z,99113.00
2022-08-02T14:49:29.307Z,99111.80
2022-08-02T14:51:57.296Z,99117.60
2022-08-02T14:54:30.709Z,99120.80
2022-08-02T14:57:03.725Z,99118.80
2022-08-02T14:59:31.033Z,99123.40
2022-08-02T15:01:59.057Z,99122.60
2022-08-02T15:04:26.301Z,99122.60
2022-08-02T15:06:53.814Z,99121.80
2022-08-02T15:09:22.201Z,99118.80
2022-08-02T15:11:49.683Z,99121.20
2022-08-02T15:14:26.200Z,99123.60
2022-08-02T15:16:58.078Z,99124.20
2022-08-02T15:19:29.482Z,99116.40
2022-08-02T15:22:16.719Z,99119.40
2022-08-02T15:24:46.137Z,99114.80
2022-08-02T15:27:15.546Z,99114.20
2022-08-02T15:29:45.182Z,99111.60
2022-08-02T15:32:13.127Z,99115.60
2022-08-02T15:34:40.696Z,99119.40
2022-08-02T15:37:07.269Z,99117.60
2022-08-02T15:39:33.852Z,99115.00
2022-08-02T15:42:00.382Z,99113.20
2022-08-02T15:44:27.279Z,99109.60
2022-08-02T15:46:54.427Z,99109.40
2022-08-02T15:49:23.947Z,99116.00
2022-08-02T15:51:52.667Z,99111.80
2022-08-02T15:54:19.893Z,99119.80
2022-08-02T15:56:46.831Z,99128.20
2022-08-02T15:59:13.475Z,99121.80
2022-08-02T16:01:43.474Z,99125.80
2022-08-02T16:04:13.615Z,99126.20
2022-08-02T16:06:40.323Z,99123.60
2022-08-02T16:09:06.863Z,99123.80
2022-08-02T16:11:33.525Z,99122.40
2022-08-02T16:14:00.120Z,99122.80
2022-08-02T16:16:33.518Z,99125.00
2022-08-02T16:19:37.516Z,99124.20
2022-08-02T16:21:50.309Z,99117.40
2022-08-02T16:24:17.409Z,99125.00
2022-08-02T16:26:44.475Z,99125.40
2022-08-02T16:29:11.108Z,99123.80
2022-08-02T16:31:42.311Z,99120.60
2022-08-02T16:34:09.806Z,99129.60
2022-08-02T16:36:36.960Z,99126.20
2022-08-02T16:39:04.801Z,99127.40
2022-08-02T16:41:45.500Z,99133.60
2022-08-02T16:44:18.045Z,99136.40
2022-08-02T16:46:53.694Z,99132.80
2022-08-02T16:50:05.725Z,99132.00
2022-08-02T16:52:06.832Z,99135.00
2022-08-02T16:54:37.276Z,99130.20
2022-08-02T16:57:05.277Z,99131.00
2022-08-02T16:59:42.959Z,99131.40
2022-08-02T17:02:15.106Z,99132.00
2022-08-02T17:04:46.095Z,99126.60
2022-08-02T17:07:16.280Z,99122.80
2022-08-02T17:10:04.010Z,99126.60
2022-08-02T17:12:34.470Z,99122.80
2022-08-02T17:15:09.028Z,99125.40
2022-08-02T17:17:47.707Z,99117.20
2022-08-02T17:20:15.089Z,99112.20
2022-08-02T17:22:44.187Z,99116.80
2022-08-02T17:25:13.460Z,99116.60
2022-08-02T17:27:43.314Z,99121.00
2022-08-02T17:30:12.717Z,99119.80
2022-08-02T17:32:40.122Z,99125.80
2022-08-02T17:35:12.895Z,99127.20
2022-08-02T17:37:42.873Z,99131.60
2022-08-02T17:40:21.012Z,99131.20
2022-08-02T17:42:50.689Z,99133.40
2022-08-02T17:45:25.779Z,99132.00
2022-08-02T17:48:05.546Z,99131.40
2022-08-02T17:50:34.112Z,99134.40
2022-08-02T17:53:01.266Z,99138.40
2022-08-02T17:55:31.242Z,99144.60
2022-08-02T17:57:59.382Z,99147.60
2022-08-02T18:00:34.905Z,99145.40
2022-08-02T18:03:05.769Z,99156.80
2022-08-02T18:05:39.466Z,99157.40
2022-08-02T18:08:17.299Z,99156.60
2022-08-02T18:10:47.734Z,99157.20
2022-08-02T18:13:14.235Z,99158.40
2022-08-02T18:15:41.413Z,99157.00
2022-08-02T18:18:12.067Z,99155.80
2022-08-02T18:20:38.591Z,99160.80
2022-08-02T18:23:06.312Z,99161.00
2022-08-02T18:25:44.017Z,99171.00
2022-08-02T18:28:14.541Z,99170.20
2022-08-02T18:30:42.668Z,99167.60
2022-08-02T18:33:58.414Z,99169.40
2022-08-02T18:35:56.056Z,99173.40
2022-08-02T18:38:25.005Z,99178.60
2022-08-02T18:40:53.707Z,99177.80
2022-08-02T18:43:25.624Z,99182.00
2022-08-02T18:46:05.502Z,99185.60
2022-08-02T18:48:35.792Z,99188.40
2022-08-02T18:51:03.105Z,99191.60
2022-08-02T18:53:41.628Z,99194.00
2022-08-02T18:56:20.249Z,99196.40
2022-08-02T18:58:56.101Z,99204.40
2022-08-02T19:01:33.533Z,99200.80
2022-08-02T19:04:04.757Z,99202.40
2022-08-02T19:06:31.589Z,99205.80
2022-08-02T19:08:59.693Z,99207.40
2022-08-02T19:11:36.946Z,99204.80
2022-08-02T19:14:03.737Z,99205.40
2022-08-02T19:16:37.405Z,99208.80
2022-08-02T19:19:08.906Z,99207.40
2022-08-02T19:22:15.528Z,99210.00
2022-08-02T19:24:22.158Z,99204.60
2022-08-02T19:26:51.893Z,99208.00
2022-08-02T19:29:25.027Z,99208.60
2022-08-02T19:32:39.313Z,99212.40
2022-08-02T19:34:55.880Z,99211.40
2022-08-02T19:37:22.617Z,99212.80
2022-08-02T19:39:49.146Z,99215.20
2022-08-02T19:42:16.816Z,99212.40
2022-08-02T19:44:45.732Z,99214.80
2022-08-02T19:47:19.275Z,99207.40
2022-08-02T19:49:48.803Z,99210.20
2022-08-02T19:56:00.796Z,99210.40
2022-08-02T19:57:50.489Z,99211.60
2022-08-02T20:00:21.616Z,99214.40
2022-08-02T20:02:48.712Z,99214.80
2022-08-02T20:05:23.741Z,99211.20
2022-08-02T20:07:56.259Z,99210.00
2022-08-02T20:10:25.010Z,99207.00
2022-08-02T20:12:54.159Z,99209.40
2022-08-02T20:15:22.580Z,99205.40
2022-08-02T20:17:49.347Z,99207.00
2022-08-02T20:20:17.274Z,99210.40
2022-08-02T20:23:32.743Z,99209.60
2022-08-02T20:25:54.461Z,99207.20
2022-08-02T20:28:22.208Z,99212.80
2022-08-02T20:30:49.194Z,99210.60
2022-08-02T20:33:21.311Z,99216.00
2022-08-02T20:35:49.902Z,99220.80
2022-08-02T20:38:16.594Z,99217.40
2022-08-02T20:40:43.434Z,99219.80
2022-08-02T20:43:10.444Z,99216.20
2022-08-02T20:45:37.045Z,99218.20
2022-08-02T20:48:03.948Z,99223.80
2022-08-02T20:50:52.246Z,99219.80
2022-08-02T20:53:23.292Z,99219.00
2022-08-02T20:55:54.209Z,99219.20
2022-08-02T20:58:26.501Z,99217.60
2022-08-02T21:00:58.644Z,99217.40
2022-08-02T21:03:25.498Z,99212.00
2022-08-02T21:06:05.796Z,99214.00
2022-08-02T21:08:34.639Z,99215.40
2022-08-02T21:11:01.447Z,99213.40
2022-08-02T21:13:46.765Z,99214.20
2022-08-02T21:16:17.790Z,99213.00
2022-08-02T21:18:45.368Z,99215.00
2022-08-02T21:21:11.933Z,99211.80
2022-08-02T21:23:48.596Z,99212.00
2022-08-02T21:26:25.660Z,99214.00
2022-08-02T21:28:55.842Z,99208.80
2022-08-02T21:31:22.499Z,99209.20
2022-08-02T21:33:58.498Z,99212.60
2022-08-02T21:36:33.762Z,99215.60
2022-08-02T21:39:04.399Z,99214.80
2022-08-02T21:41:39.837Z,99214.80
2022-08-02T21:44:17.168Z,99218.40
2022-08-02T21:46:56.079Z,99216.40
2022-08-02T21:49:41.235Z,99214.60
2022-08-02T21:52:11.959Z,99218.80
2022-08-02T21:54:40.091Z,99215.40
2022-08-02T21:57:08.095Z,99215.20
2022-08-02T21:59:45.167Z,99213.00
2022-08-02T22:02:12.504Z,99219.80
2022-08-02T22:04:41.300Z,99219.40
2022-08-02T22:07:17.125Z,99219.80
2022-08-02T22:09:45.485Z,99220.80
2022-08-02T22:12:16.498Z,99218.00
2022-08-02T22:14:54.679Z,99218.20
2022-08-02T22:17:50.680Z,99220.20
2022-08-02T22:20:18.440Z,99224.80
2022-08-02T22:22:52.278Z,99226.00
2022-08-02T22:25:26.861Z,99228.40
2022-08-02T22:28:35.303Z,99230.00
2022-08-02T22:30:54.011Z,99231.00
2022-08-02T22:33:42.226Z,99224.40
2022-08-02T22:36:09.184Z,99223.80
2022-08-02T22:38:38.439Z,99223.20
2022-08-02T22:41:12.347Z,99221.60
2022-08-02T22:43:39.742Z,99225.80
2022-08-02T22:46:06.473Z,99223.20
2022-08-02T22:48:35.877Z,99222.20
2022-08-02T22:51:06.857Z,99223.40
2022-08-02T22:53:36.131Z,99222.20
2022-08-02T22:56:05.354Z,99221.80
2022-08-02T22:58:32.828Z,99222.80
2022-08-02T22:58:53.555Z,99211.40
2022-08-02T23:01:00.235Z,99220.40
2022-08-02T23:03:27.044Z,99224.40
2022-08-02T23:05:53.843Z,99224.20
2022-08-02T23:08:20.476Z,99225.40
2022-08-02T23:10:47.041Z,99220.40
2022-08-02T23:13:13.706Z,99228.00
2022-08-02T23:16:00.956Z,99225.40
2022-08-02T23:18:47.354Z,99224.60
2022-08-02T23:21:14.455Z,99228.20
2022-08-02T23:24:01.685Z,99226.80
2022-08-02T23:26:28.434Z,99220.00
2022-08-02T23:28:55.008Z,99224.20
2022-08-02T23:31:31.926Z,99224.00
2022-08-02T23:34:03.819Z,99222.00
2022-08-02T23:36:32.034Z,99219.60
2022-08-02T23:38:59.827Z,99215.60
2022-08-02T23:41:27.730Z,99215.60
2022-08-02T23:44:12.623Z,99213.80
2022-08-02T23:46:44.747Z,99213.20
2022-08-02T23:49:12.113Z,99214.20
2022-08-02T23:51:39.008Z,99212.00
2022-08-02T23:54:05.534Z,99214.80
2022-08-02T23:56:32.088Z,99217.40
2022-08-02T23:58:58.675Z,99218.20
